Список аэропортов
Фактическая погода:

25 июня, 00:30
Температура: +16°C (+16.0*)
Ветер: 0
Давление: *760 мм
Без существ. явл.
Время (МСК)Темп. СВетерВлажностьДавлениеОблачностьОсадки
20:00+20ЮЗ, 1 м/с80%1013 гПаоблачно
21:00+18ЮЗ, 1 м/с89%1014 гПаоблачно
22:00+16ЮЗ, 1 м/с94%1014 гПас прояснениями
23:00+16ЮЗ, 1 м/с94%1014 гПамалооблачно
25 июня
00:00+14ЮЗ, 1 м/с96%1014 гПаясно
01:00+14З, 1 м/с95%1015 гПаясно
02:00+14З, 1 м/с93%1016 гПаясно
03:00+15З, 1 м/с84%1015 гПаясно
04:00+18СЗ, 1 м/с72%1016 гПаясно
05:00+20С, 1 м/с64%1016 гПаясно
06:00+23Штиль 56%1016 гПаясно
07:00+26Штиль 46%1016 гПаясно
08:00+29Штиль 36%1016 гПаясно
09:00+31Штиль 29%1016 гПаясно
10:00+32Ю, 1 м/с26%1015 гПас прояснениями
11:00+33ЮЗ, 1 м/с25%1015 гПас прояснениями
12:00+34ЮЗ, 2 м/с25%1014 гПаоблачно
13:00+34ЮЗ, 2 м/с23%1014 гПаоблачно
14:00+34ЮЗ, 2 м/с24%1014 гПас прояснениями
15:00+34Ю, 2 м/с24%1013 гПаоблачно
16:00+33Ю, 2 м/с25%1013 гПаоблачно
17:00+33Ю, 2 м/с26%1013 гПас прояснениями
18:00+31Ю, 2 м/с32%1013 гПаоблачно
19:00+27ЮВ, 1 м/с66%1013 гПаясно
20:00+23ЮВ, 1 м/с73%1013 гПас прояснениями
21:00+21В, 1 м/с81%1013 гПаоблачно
22:00+19В, 1 м/с87%1013 гПас прояснениями
23:00+19ЮВ, 2 м/с83%1012 гПамалооблачно
26 июня
00:00+18Ю, 2 м/с80%1012 гПаясно
01:00+17ЮВ, 1 м/с84%1013 гПас прояснениями
02:00+17В, 1 м/с86%1013 гПамалооблачно
03:00+18ЮВ, 1 м/с80%1013 гПамалооблачно
04:00+20Ю, 1 м/с72%1013 гПамалооблачно
05:00+22ЮВ, 2 м/с84%1013 гПас прояснениямидождь
06:00+24Ю, 2 м/с75%1013 гПас прояснениямисл. дождь
07:00+27Ю, 2 м/с60%1013 гПаоблачно
08:00+30Ю, 2 м/с48%1013 гПас прояснениями
09:00+32Ю, 2 м/с38%1013 гПаясно
10:00+34ЮЗ, 3 м/с32%1012 гПамалооблачно
11:00+27ЮВ, 2 м/с84%1013 гПамалооблачнодождь
12:00+30ЮВ, 2 м/с64%1012 гПамалооблачно
13:00+33ЮВ, 2 м/с37%1012 гПамалооблачно
14:00+33Ю, 3 м/с41%1012 гПамалооблачно
15:00+30Ю, 3 м/с55%1012 гПаоблачно
16:00+31Ю, 3 м/с50%1012 гПас прояснениями
17:00+30Ю, 2 м/с52%1012 гПаясно
18:00+28ЮВ, 1 м/с65%1011 гПаясно
19:00+26Ю, 1 м/с88%1011 гПас прояснениямисл. дождь
20:00+23ЮВ, 1 м/с97%1012 гПаоблачнодождь